createdAt,value
2019-05-25T00:01:00.012Z,17.20
2019-05-25T00:03:28.392Z,17.20
2019-05-25T00:05:56.788Z,17.10
2019-05-25T00:08:25.193Z,17.10
2019-05-25T00:10:53.587Z,17.10
2019-05-25T00:13:22.039Z,17.00
2019-05-25T00:15:50.447Z,17.00
2019-05-25T00:18:18.838Z,17.00
2019-05-25T00:20:47.231Z,16.90
2019-05-25T00:23:15.613Z,16.90
2019-05-25T00:25:44.019Z,17.00
2019-05-25T00:28:12.420Z,16.90
2019-05-25T00:30:40.902Z,16.90
2019-05-25T00:33:09.316Z,16.90
2019-05-25T00:35:37.771Z,16.80
2019-05-25T00:38:06.402Z,16.80
2019-05-25T00:40:34.800Z,16.80
2019-05-25T00:43:03.348Z,16.70
2019-05-25T00:45:31.755Z,16.70
2019-05-25T00:48:00.212Z,16.70
2019-05-25T00:50:28.599Z,16.70
2019-05-25T00:52:57.059Z,16.60
2019-05-25T00:55:25.455Z,16.60
2019-05-25T00:57:53.852Z,16.50
2019-05-25T01:00:22.500Z,16.50
2019-05-25T01:02:51.440Z,16.50
2019-05-25T01:05:19.792Z,16.50
2019-05-25T01:07:48.189Z,16.40
2019-05-25T01:10:16.812Z,16.40
2019-05-25T01:12:45.200Z,16.40
2019-05-25T01:15:14.794Z,16.40
2019-05-25T01:17:43.192Z,16.30
2019-05-25T01:20:12.051Z,16.20
2019-05-25T01:22:40.509Z,16.20
2019-05-25T01:25:09.452Z,16.10
2019-05-25T01:27:37.849Z,16.10
2019-05-25T01:30:08.783Z,16.10
2019-05-25T01:32:37.252Z,16.00
2019-05-25T01:35:06.476Z,16.00
2019-05-25T01:37:34.874Z,16.00
2019-05-25T01:40:04.540Z,15.90
2019-05-25T01:42:32.976Z,15.90
2019-05-25T01:45:01.402Z,15.80
2019-05-25T01:47:29.808Z,15.80
2019-05-25T01:49:58.246Z,15.70
2019-05-25T01:52:26.657Z,15.70
2019-05-25T01:55:00.047Z,15.60
2019-05-25T01:57:25.534Z,15.60
2019-05-25T01:59:53.927Z,15.60
2019-05-25T02:02:22.323Z,15.50
2019-05-25T02:04:50.712Z,15.50
2019-05-25T02:07:19.183Z,15.40
2019-05-25T02:09:47.560Z,15.40
2019-05-25T02:12:16.035Z,15.40
2019-05-25T02:14:44.412Z,15.40
2019-05-25T02:17:12.812Z,15.40
2019-05-25T02:19:41.196Z,15.40
2019-05-25T02:22:09.639Z,15.30
2019-05-25T02:24:38.041Z,15.30
2019-05-25T02:27:06.439Z,15.30
2019-05-25T02:29:34.816Z,15.30
2019-05-25T02:32:03.211Z,15.30
2019-05-25T02:34:31.604Z,15.20
2019-05-25T02:37:00.008Z,15.20
2019-05-25T02:39:28.402Z,15.20
2019-05-25T02:41:56.788Z,15.20
2019-05-25T02:44:25.214Z,15.20
2019-05-25T02:46:53.586Z,15.10
2019-05-25T02:49:21.976Z,15.10
2019-05-25T02:51:50.370Z,15.00
2019-05-25T02:54:20.138Z,15.00
2019-05-25T02:56:48.516Z,14.90
2019-05-25T02:59:16.923Z,14.90
2019-05-25T03:01:45.298Z,14.90
2019-05-25T03:04:13.953Z,14.90
2019-05-25T03:06:43.274Z,14.80
2019-05-25T03:09:11.671Z,14.80
2019-05-25T03:11:41.221Z,14.80
2019-05-25T03:14:09.621Z,14.80
2019-05-25T03:16:38.057Z,14.70
2019-05-25T03:19:06.469Z,14.70
2019-05-25T03:21:34.854Z,14.70
2019-05-25T03:24:03.255Z,14.70
2019-05-25T03:26:31.639Z,14.70
2019-05-25T03:29:00.050Z,14.70
2019-05-25T03:31:28.441Z,14.70
2019-05-25T03:33:56.842Z,14.70
2019-05-25T03:36:25.229Z,14.70
2019-05-25T03:38:53.633Z,14.70
2019-05-25T03:41:22.083Z,14.60
2019-05-25T03:43:50.487Z,14.60
2019-05-25T03:46:18.875Z,14.60
2019-05-25T03:48:47.368Z,14.60
2019-05-25T03:51:15.827Z,14.60
2019-05-25T03:53:44.536Z,14.60
2019-05-25T03:56:12.916Z,14.60
2019-05-25T03:58:41.329Z,14.60
2019-05-25T04:01:10.381Z,14.60
2019-05-25T04:03:38.792Z,14.60
2019-05-25T04:06:08.451Z,14.60
2019-05-25T04:08:36.856Z,14.60
2019-05-25T04:11:05.351Z,14.60
2019-05-25T04:13:34.025Z,14.60
2019-05-25T04:16:02.413Z,14.60
2019-05-25T04:18:31.652Z,14.60
2019-05-25T04:21:00.076Z,14.60
2019-05-25T04:23:28.453Z,14.60
2019-05-25T04:25:57.155Z,14.60
2019-05-25T04:28:26.907Z,14.60
2019-05-25T04:30:55.317Z,14.60
2019-05-25T04:33:23.730Z,14.50
2019-05-25T04:35:52.124Z,14.50
2019-05-25T04:38:20.508Z,14.50
2019-05-25T04:40:48.984Z,14.50
2019-05-25T04:43:17.362Z,14.50
2019-05-25T04:45:45.754Z,14.50
2019-05-25T04:48:14.153Z,14.50
2019-05-25T04:50:42.564Z,14.50
2019-05-25T04:53:10.958Z,14.50
2019-05-25T04:55:39.360Z,14.50
2019-05-25T04:58:07.760Z,14.50
2019-05-25T05:00:36.222Z,14.60
2019-05-25T05:03:04.687Z,14.60
2019-05-25T05:05:33.084Z,14.70
2019-05-25T05:08:01.973Z,14.70
2019-05-25T05:10:30.393Z,14.80
2019-05-25T05:12:58.781Z,14.90
2019-05-25T05:15:27.192Z,15.00
2019-05-25T05:17:55.664Z,15.10
2019-05-25T05:20:24.078Z,15.20
2019-05-25T05:22:52.544Z,15.30
2019-05-25T05:25:20.967Z,15.50
2019-05-25T05:27:49.811Z,15.60
2019-05-25T05:30:21.721Z,15.70
2019-05-25T05:32:53.417Z,15.90
2019-05-25T05:35:21.816Z,16.10
2019-05-25T05:37:50.295Z,16.20
2019-05-25T05:40:18.762Z,16.40
2019-05-25T05:42:49.273Z,16.50
2019-05-25T05:45:16.881Z,16.70
2019-05-25T05:47:46.995Z,16.90
2019-05-25T05:50:15.805Z,17.20
2019-05-25T05:52:44.676Z,17.30
2019-05-25T05:55:17.159Z,17.50
2019-05-25T05:57:43.739Z,17.60
2019-05-25T06:00:13.255Z,17.80
2019-05-25T06:02:41.682Z,17.90
2019-05-25T06:05:10.195Z,18.10
2019-05-25T06:07:38.588Z,18.40
2019-05-25T06:10:08.131Z,18.50
2019-05-25T06:12:36.535Z,18.60
2019-05-25T06:15:07.886Z,18.80
2019-05-25T06:17:36.286Z,18.80
2019-05-25T06:20:06.622Z,18.90
2019-05-25T06:22:36.450Z,19.20
2019-05-25T06:25:09.374Z,19.30
2019-05-25T06:27:37.769Z,19.40
2019-05-25T06:30:09.054Z,19.70
2019-05-25T06:32:37.462Z,19.90
2019-05-25T06:35:09.973Z,20.20
2019-05-25T06:37:38.369Z,20.50
2019-05-25T06:40:08.202Z,20.80
2019-05-25T06:42:36.602Z,20.90
2019-05-25T06:45:09.090Z,21.10
2019-05-25T06:47:37.565Z,21.20
2019-05-25T06:50:07.866Z,20.90
2019-05-25T06:52:36.275Z,21.00
2019-05-25T06:55:06.599Z,21.10
2019-05-25T06:57:43.063Z,21.00
2019-05-25T07:00:06.935Z,21.20
2019-05-25T07:02:35.327Z,21.10
2019-05-25T07:05:06.053Z,21.20
2019-05-25T07:07:34.443Z,21.50
2019-05-25T07:10:03.206Z,21.60
2019-05-25T07:12:31.616Z,21.90
2019-05-25T07:15:00.020Z,22.10
2019-05-25T07:17:28.417Z,22.00
2019-05-25T07:19:56.823Z,22.10
2019-05-25T07:22:25.274Z,22.30
2019-05-25T07:24:53.673Z,22.60
2019-05-25T07:27:22.059Z,22.80
2019-05-25T07:29:50.448Z,23.10
2019-05-25T07:32:18.826Z,23.20
2019-05-25T07:34:47.224Z,23.40
2019-05-25T07:37:15.609Z,23.50
2019-05-25T07:39:44.266Z,23.50
2019-05-25T07:42:12.663Z,23.90
2019-05-25T07:44:41.053Z,24.30
2019-05-25T07:47:09.452Z,24.40
2019-05-25T07:49:37.848Z,24.50
2019-05-25T07:52:06.232Z,24.70
2019-05-25T07:54:34.633Z,24.80
2019-05-25T07:57:03.026Z,24.50
2019-05-25T07:59:31.411Z,24.80
2019-05-25T08:02:00.093Z,25.00
2019-05-25T08:04:28.480Z,25.20
2019-05-25T08:06:56.860Z,25.40
2019-05-25T08:09:25.278Z,25.30
2019-05-25T08:11:53.663Z,25.30
2019-05-25T08:14:22.060Z,25.30
2019-05-25T08:16:50.470Z,25.70
2019-05-25T08:19:18.860Z,25.70
2019-05-25T08:21:47.252Z,25.70
2019-05-25T08:24:15.652Z,26.10
2019-05-25T08:26:44.041Z,26.20
2019-05-25T08:29:12.431Z,26.40
2019-05-25T08:31:40.831Z,26.80
2019-05-25T08:34:09.680Z,26.90
2019-05-25T08:36:38.099Z,26.70
2019-05-25T08:39:07.316Z,26.60
2019-05-25T08:41:35.715Z,26.70
2019-05-25T08:44:05.488Z,27.10
2019-05-25T08:46:33.879Z,27.10
2019-05-25T08:49:02.262Z,27.30
2019-05-25T08:51:30.656Z,27.40
2019-05-25T08:53:59.043Z,27.80
2019-05-25T08:56:27.450Z,27.80
2019-05-25T08:58:55.852Z,27.80
2019-05-25T09:01:24.267Z,28.20
2019-05-25T09:03:52.724Z,28.10
2019-05-25T09:06:22.795Z,28.40
2019-05-25T09:08:51.229Z,28.30
2019-05-25T09:11:19.613Z,28.70
2019-05-25T09:13:47.995Z,28.70
2019-05-25T09:16:16.470Z,29.00
2019-05-25T09:18:44.943Z,29.20
2019-05-25T09:21:13.336Z,29.30
2019-05-25T09:23:41.713Z,28.80
2019-05-25T09:26:13.238Z,28.80
2019-05-25T09:28:40.963Z,29.20
2019-05-25T09:31:09.360Z,29.30
2019-05-25T09:33:37.770Z,29.20
2019-05-25T09:36:06.169Z,29.40
2019-05-25T09:38:34.548Z,29.50
2019-05-25T09:41:02.935Z,29.20
2019-05-25T09:43:33.939Z,29.40
2019-05-25T09:46:03.250Z,29.60
2019-05-25T09:48:30.761Z,29.90
2019-05-25T09:50:59.177Z,29.30
2019-05-25T09:53:27.547Z,29.70
2019-05-25T09:55:55.961Z,30.20
2019-05-25T09:58:24.356Z,30.30
2019-05-25T10:00:52.732Z,30.10
2019-05-25T10:03:21.120Z,30.20
2019-05-25T10:05:49.508Z,30.20
2019-05-25T10:08:17.905Z,30.00
2019-05-25T10:10:46.720Z,30.30
2019-05-25T10:13:15.143Z,30.80
2019-05-25T10:15:43.508Z,30.60
2019-05-25T10:18:12.174Z,31.00
2019-05-25T10:20:40.824Z,30.20
2019-05-25T10:23:09.228Z,30.30
2019-05-25T10:25:37.617Z,30.50
2019-05-25T10:28:06.076Z,30.80
2019-05-25T10:30:34.528Z,30.70
2019-05-25T10:33:02.917Z,31.00
2019-05-25T10:35:31.359Z,31.10
2019-05-25T10:37:59.803Z,30.90
2019-05-25T10:40:28.200Z,30.40
2019-05-25T10:42:56.603Z,31.00
2019-05-25T10:45:24.983Z,31.20
2019-05-25T10:47:53.384Z,31.00
2019-05-25T10:50:22.382Z,31.70
2019-05-25T10:52:50.777Z,32.20
2019-05-25T10:55:19.242Z,31.90
2019-05-25T10:57:47.627Z,31.50
2019-05-25T11:00:19.101Z,31.80
2019-05-25T11:02:47.512Z,31.80
2019-05-25T11:05:16.321Z,32.30
2019-05-25T11:07:44.724Z,33.10
2019-05-25T11:10:13.757Z,32.90
2019-05-25T11:12:42.151Z,32.60
2019-05-25T11:15:11.477Z,32.40
2019-05-25T11:17:39.866Z,32.20
2019-05-25T11:20:09.679Z,31.90
2019-05-25T11:22:38.149Z,32.00
2019-05-25T11:25:08.765Z,31.70
2019-05-25T11:27:37.387Z,31.20
2019-05-25T11:30:09.596Z,30.60
2019-05-25T11:32:37.127Z,30.70
2019-05-25T11:35:08.351Z,29.80
2019-05-25T11:37:36.741Z,29.50
2019-05-25T11:40:09.911Z,29.60
2019-05-25T11:42:38.288Z,29.20
2019-05-25T11:45:08.387Z,29.20
2019-05-25T11:47:36.774Z,28.50
2019-05-25T11:50:07.083Z,28.70
2019-05-25T11:52:34.712Z,28.50
2019-05-25T11:55:04.483Z,28.30
2019-05-25T11:57:32.879Z,28.50
2019-05-25T12:00:01.272Z,28.60
2019-05-25T12:02:29.681Z,28.20
2019-05-25T12:04:58.079Z,27.90
2019-05-25T12:07:26.464Z,27.90
2019-05-25T12:09:54.872Z,27.50
2019-05-25T12:12:23.261Z,27.30
2019-05-25T12:14:51.700Z,27.00
2019-05-25T12:17:20.329Z,26.90
2019-05-25T12:19:48.758Z,26.70
2019-05-25T12:22:17.139Z,26.50
2019-05-25T12:24:45.538Z,26.60
2019-05-25T12:27:13.928Z,26.50
2019-05-25T12:29:42.332Z,26.40
2019-05-25T12:32:10.727Z,26.40
2019-05-25T12:34:39.145Z,26.20
2019-05-25T12:37:07.528Z,26.30
2019-05-25T12:39:35.908Z,26.20
2019-05-25T12:42:04.375Z,26.00
2019-05-25T12:44:34.542Z,25.80
2019-05-25T12:47:02.885Z,26.00
2019-05-25T12:49:48.484Z,26.10
2019-05-25T12:52:01.388Z,26.10
2019-05-25T12:54:29.787Z,26.10
2019-05-25T12:56:58.195Z,26.20
2019-05-25T12:59:26.649Z,26.20
2019-05-25T13:01:55.040Z,26.10
2019-05-25T13:04:23.435Z,26.20
2019-05-25T13:06:51.840Z,26.20
2019-05-25T13:09:20.232Z,26.80
2019-05-25T13:11:48.625Z,27.20
2019-05-25T13:14:17.082Z,27.20
2019-05-25T13:16:45.483Z,27.10
2019-05-25T13:19:13.944Z,27.60
2019-05-25T13:21:42.464Z,27.60
2019-05-25T13:24:10.840Z,27.50
2019-05-25T13:26:39.244Z,27.60
2019-05-25T13:29:07.653Z,27.70
2019-05-25T13:31:36.066Z,27.60
2019-05-25T13:34:04.437Z,27.60
2019-05-25T13:36:32.838Z,27.80
2019-05-25T13:39:01.228Z,28.10
2019-05-25T13:41:29.709Z,28.10
2019-05-25T13:43:58.103Z,28.00
2019-05-25T13:46:26.514Z,28.30
2019-05-25T13:48:54.904Z,28.20
2019-05-25T13:51:23.293Z,28.40
2019-05-25T13:53:52.033Z,28.40
2019-05-25T13:56:20.464Z,28.60
2019-05-25T13:58:48.929Z,29.00
2019-05-25T14:01:28.052Z,29.00
2019-05-25T14:03:47.439Z,28.90
2019-05-25T14:06:15.840Z,28.60
2019-05-25T14:08:44.220Z,28.70
2019-05-25T14:11:12.607Z,29.40
2019-05-25T14:13:41.008Z,29.80
2019-05-25T14:16:09.402Z,29.90
2019-05-25T14:18:37.800Z,30.10
2019-05-25T14:21:06.197Z,30.00
2019-05-25T14:23:34.931Z,30.20
2019-05-25T14:26:04.380Z,30.30
2019-05-25T14:28:32.761Z,29.70
2019-05-25T14:31:01.136Z,29.30
2019-05-25T14:33:29.533Z,29.50
2019-05-25T14:35:57.911Z,29.60
2019-05-25T14:38:26.304Z,29.50
2019-05-25T14:40:54.697Z,29.60
2019-05-25T14:43:23.132Z,29.50
2019-05-25T14:45:53.339Z,29.60
2019-05-25T14:48:23.096Z,30.10
2019-05-25T14:50:51.492Z,29.50
2019-05-25T14:53:19.884Z,28.90
2019-05-25T14:55:48.275Z,29.10
2019-05-25T14:58:16.685Z,29.30
2019-05-25T15:00:45.069Z,29.20
2019-05-25T15:03:13.460Z,29.10
2019-05-25T15:05:41.862Z,29.00
2019-05-25T15:08:11.121Z,29.10
2019-05-25T15:10:39.507Z,28.60
2019-05-25T15:13:08.226Z,28.30
2019-05-25T15:15:36.617Z,28.30
2019-05-25T15:18:05.001Z,28.20
2019-05-25T15:20:33.778Z,28.00
2019-05-25T15:23:02.204Z,27.90
2019-05-25T15:25:30.645Z,28.00
2019-05-25T15:27:59.056Z,28.10
2019-05-25T15:30:27.533Z,28.00
2019-05-25T15:32:55.934Z,27.60
2019-05-25T15:35:24.312Z,27.60
2019-05-25T15:37:53.155Z,27.70
2019-05-25T15:40:21.895Z,27.30
2019-05-25T15:42:50.280Z,27.30
2019-05-25T15:45:18.782Z,27.20
2019-05-25T15:47:47.162Z,27.10
2019-05-25T15:50:16.598Z,27.00
2019-05-25T15:52:44.986Z,26.20
2019-05-25T15:55:13.717Z,26.70
2019-05-25T15:57:42.108Z,26.60
2019-05-25T16:00:12.007Z,26.10
2019-05-25T16:02:40.393Z,26.50
2019-05-25T16:05:09.241Z,26.80
2019-05-25T16:07:41.092Z,26.60
2019-05-25T16:10:10.145Z,26.60
2019-05-25T16:12:38.532Z,26.20
2019-05-25T16:15:10.127Z,26.60
2019-05-25T16:17:39.154Z,26.60
2019-05-25T16:20:07.786Z,26.60
2019-05-25T16:22:36.184Z,27.20
2019-05-25T16:25:06.960Z,27.20
2019-05-25T16:27:35.430Z,27.30
2019-05-25T16:30:06.322Z,27.00
2019-05-25T16:32:34.791Z,26.80
2019-05-25T16:35:03.846Z,26.80
2019-05-25T16:37:32.315Z,26.80
2019-05-25T16:40:00.713Z,26.70
2019-05-25T16:42:29.106Z,26.50
2019-05-25T16:44:57.493Z,26.20
2019-05-25T16:47:25.883Z,26.20
2019-05-25T16:49:54.291Z,26.00
2019-05-25T16:52:22.720Z,26.00
2019-05-25T16:54:51.097Z,26.00
2019-05-25T16:57:19.488Z,25.90
2019-05-25T16:59:47.871Z,25.70
2019-05-25T17:02:16.264Z,25.50
2019-05-25T17:04:44.643Z,25.20
2019-05-25T17:07:13.252Z,25.20
2019-05-25T17:09:41.637Z,25.10
2019-05-25T17:12:10.195Z,24.90
2019-05-25T17:14:38.567Z,24.80
2019-05-25T17:17:06.972Z,24.60
2019-05-25T17:19:35.351Z,24.50
2019-05-25T17:22:03.826Z,24.50
2019-05-25T17:24:32.197Z,24.40
2019-05-25T17:27:00.996Z,24.40
2019-05-25T17:29:29.472Z,24.50
2019-05-25T17:31:57.981Z,24.40
2019-05-25T17:34:26.453Z,24.20
2019-05-25T17:36:54.836Z,24.10
2019-05-25T17:39:23.236Z,24.20
2019-05-25T17:41:51.697Z,24.10
2019-05-25T17:44:20.087Z,24.00
2019-05-25T17:46:48.479Z,24.10
2019-05-25T17:49:16.879Z,23.90
2019-05-25T17:51:45.633Z,23.90
2019-05-25T17:54:14.045Z,23.80
2019-05-25T17:56:42.433Z,23.80
2019-05-25T17:59:10.844Z,23.70
2019-05-25T18:01:39.231Z,23.60
2019-05-25T18:04:08.127Z,23.60
2019-05-25T18:06:36.709Z,23.60
2019-05-25T18:09:07.804Z,23.50
2019-05-25T18:11:36.192Z,23.50
2019-05-25T18:14:05.221Z,23.40
2019-05-25T18:16:33.718Z,23.40
2019-05-25T18:19:02.113Z,23.40
2019-05-25T18:21:30.603Z,23.30
2019-05-25T18:23:59.008Z,23.30
2019-05-25T18:26:27.378Z,23.30
2019-05-25T18:28:55.839Z,23.20
2019-05-25T18:31:24.228Z,23.10
2019-05-25T18:33:52.622Z,23.00
2019-05-25T18:36:21.004Z,23.00
2019-05-25T18:38:49.437Z,23.00
2019-05-25T18:41:18.070Z,22.90
2019-05-25T18:43:46.485Z,22.80
2019-05-25T18:46:15.136Z,22.80
2019-05-25T18:48:43.568Z,22.80
2019-05-25T18:51:11.987Z,22.80
2019-05-25T18:53:40.457Z,22.70
2019-05-25T18:56:08.827Z,22.60
2019-05-25T18:58:37.252Z,22.60
2019-05-25T19:01:06.022Z,22.40
2019-05-25T19:03:34.722Z,22.40
2019-05-25T19:06:03.160Z,22.30
2019-05-25T19:08:31.897Z,22.30
2019-05-25T19:11:00.289Z,22.20
2019-05-25T19:13:28.675Z,22.10
2019-05-25T19:15:57.060Z,22.00
2019-05-25T19:18:25.480Z,21.80
2019-05-25T19:20:53.895Z,21.70
2019-05-25T19:23:22.284Z,21.60
2019-05-25T19:25:50.677Z,21.50
2019-05-25T19:28:19.062Z,21.40
2019-05-25T19:30:47.458Z,21.40
2019-05-25T19:33:15.836Z,21.30
2019-05-25T19:35:44.233Z,21.30
2019-05-25T19:38:12.613Z,21.10
2019-05-25T19:40:41.012Z,21.10
2019-05-25T19:43:09.394Z,21.00
2019-05-25T19:45:37.836Z,20.90
2019-05-25T19:48:06.225Z,20.80
2019-05-25T19:50:34.608Z,20.80
2019-05-25T19:53:02.997Z,20.70
2019-05-25T19:55:31.392Z,20.60
2019-05-25T19:57:59.785Z,20.50
2019-05-25T20:00:28.180Z,20.50
2019-05-25T20:02:56.573Z,20.40
2019-05-25T20:05:26.321Z,20.30
2019-05-25T20:07:54.699Z,20.30
2019-05-25T20:10:23.828Z,20.20
2019-05-25T20:12:52.270Z,20.10
2019-05-25T20:15:20.748Z,19.90
2019-05-25T20:17:49.131Z,19.80
2019-05-25T20:20:18.301Z,19.70
2019-05-25T20:22:46.999Z,19.70
2019-05-25T20:25:15.505Z,19.60
2019-05-25T20:27:43.909Z,19.50
2019-05-25T20:30:13.036Z,19.40
2019-05-25T20:32:41.429Z,19.40
2019-05-25T20:35:09.988Z,19.30
2019-05-25T20:37:38.389Z,19.20
2019-05-25T20:40:08.381Z,19.10
2019-05-25T20:42:36.864Z,19.00
2019-05-25T20:45:07.079Z,19.00
2019-05-25T20:47:35.475Z,18.80
2019-05-25T20:50:06.664Z,18.70
2019-05-25T20:52:35.088Z,18.60
2019-05-25T20:55:04.656Z,18.60
2019-05-25T20:57:33.323Z,18.60
2019-05-25T21:00:01.692Z,18.60
2019-05-25T21:02:30.364Z,18.50
2019-05-25T21:04:58.750Z,18.50
2019-05-25T21:07:27.155Z,18.50
2019-05-25T21:09:55.527Z,18.50
2019-05-25T21:12:24.316Z,18.40
2019-05-25T21:14:52.703Z,18.40
2019-05-25T21:17:21.098Z,18.30
2019-05-25T21:19:49.489Z,18.30
2019-05-25T21:22:17.871Z,18.30
2019-05-25T21:24:46.263Z,18.30
2019-05-25T21:27:14.676Z,18.30
2019-05-25T21:29:43.074Z,18.20
2019-05-25T21:32:11.476Z,18.20
2019-05-25T21:34:39.858Z,18.20
2019-05-25T21:37:08.236Z,18.10
2019-05-25T21:39:36.624Z,18.10
2019-05-25T21:42:05.031Z,18.10
2019-05-25T21:44:33.414Z,18.10
2019-05-25T21:47:01.799Z,18.00
2019-05-25T21:49:30.489Z,18.00
2019-05-25T21:51:58.875Z,18.00
2019-05-25T21:54:27.269Z,17.90
2019-05-25T21:56:55.669Z,17.90
2019-05-25T21:59:24.063Z,17.90
2019-05-25T22:01:52.458Z,17.90
2019-05-25T22:04:20.871Z,17.80
2019-05-25T22:06:49.500Z,17.90
2019-05-25T22:09:17.912Z,17.80
2019-05-25T22:11:46.298Z,17.80
2019-05-25T22:14:14.699Z,17.80
2019-05-25T22:16:43.094Z,17.80
2019-05-25T22:19:12.852Z,17.70
2019-05-25T22:21:41.244Z,17.70
2019-05-25T22:24:09.678Z,17.70
2019-05-25T22:26:38.041Z,17.70
2019-05-25T22:29:06.444Z,17.70
2019-05-25T22:31:34.847Z,17.70
2019-05-25T22:34:03.243Z,17.70
2019-05-25T22:36:40.209Z,17.70
2019-05-25T22:39:01.744Z,17.70
2019-05-25T22:41:30.127Z,17.60
2019-05-25T22:43:58.520Z,17.60
2019-05-25T22:46:26.919Z,17.60
2019-05-25T22:48:55.376Z,17.60
2019-05-25T22:51:23.841Z,17.60
2019-05-25T22:53:52.234Z,17.50
2019-05-25T22:56:20.620Z,17.50
2019-05-25T22:58:49.018Z,17.40
2019-05-25T23:01:17.408Z,17.40
2019-05-25T23:03:45.816Z,17.30
2019-05-25T23:06:14.204Z,17.30
2019-05-25T23:08:42.601Z,17.30
2019-05-25T23:11:10.991Z,17.20
2019-05-25T23:13:39.380Z,17.20
2019-05-25T23:16:09.435Z,17.10
2019-05-25T23:18:37.821Z,17.10
2019-05-25T23:21:06.208Z,17.00
2019-05-25T23:23:34.600Z,17.00
2019-05-25T23:26:02.995Z,17.00
2019-05-25T23:28:31.384Z,16.90
2019-05-25T23:30:59.793Z,16.90
2019-05-25T23:33:28.176Z,16.90
2019-05-25T23:35:56.569Z,16.90
2019-05-25T23:38:24.960Z,16.90
2019-05-25T23:40:53.363Z,16.80
2019-05-25T23:43:21.808Z,16.80
2019-05-25T23:45:50.210Z,16.70
2019-05-25T23:48:18.599Z,16.60
2019-05-25T23:50:46.997Z,16.50
2019-05-25T23:53:15.387Z,16.50
2019-05-25T23:55:43.793Z,16.50
2019-05-25T23:58:12.184Z,16.40
